createdAt,value
2022-10-14T00:00:22.966Z,43.6
2022-10-14T00:01:23.630Z,50.1
2022-10-14T00:02:24.191Z,49.7
2022-10-14T00:03:24.787Z,54.4
2022-10-14T00:04:25.383Z,49.4
2022-10-14T00:05:25.979Z,45.8
2022-10-14T00:06:26.579Z,52.0
2022-10-14T00:07:27.172Z,47.3
2022-10-14T00:08:27.771Z,49.6
2022-10-14T00:09:28.367Z,51.6
2022-10-14T00:10:28.963Z,56.9
2022-10-14T00:11:29.560Z,51.6
2022-10-14T00:12:30.162Z,49.6
2022-10-14T00:13:30.756Z,52.1
2022-10-14T00:14:31.352Z,46.2
2022-10-14T00:15:31.949Z,48.3
2022-10-14T00:16:32.549Z,48.8
2022-10-14T00:17:33.146Z,52.2
2022-10-14T00:18:33.742Z,50.0
2022-10-14T00:19:34.343Z,50.1
2022-10-14T00:20:34.937Z,49.9
2022-10-14T00:21:35.537Z,49.0
2022-10-14T00:22:36.134Z,51.3
2022-10-14T00:23:36.739Z,47.7
2022-10-14T00:24:37.350Z,51.1
2022-10-14T00:25:37.946Z,47.6
2022-10-14T00:26:38.544Z,45.0
2022-10-14T00:27:39.144Z,49.3
2022-10-14T00:28:39.798Z,50.6
2022-10-14T00:29:40.383Z,48.4
2022-10-14T00:30:40.978Z,47.1
2022-10-14T00:31:41.577Z,49.3
2022-10-14T00:32:42.174Z,47.5
2022-10-14T00:33:42.773Z,47.7
2022-10-14T00:34:43.369Z,47.9
2022-10-14T00:35:43.967Z,46.2
2022-10-14T00:36:44.585Z,49.6
2022-10-14T00:37:45.165Z,48.4
2022-10-14T00:38:45.758Z,51.3
2022-10-14T00:39:46.356Z,50.0
2022-10-14T00:40:46.953Z,49.5
2022-10-14T00:41:47.549Z,47.7
2022-10-14T00:42:48.149Z,47.4
2022-10-14T00:43:48.762Z,47.7
2022-10-14T00:44:49.364Z,46.3
2022-10-14T00:45:49.954Z,50.8
2022-10-14T00:46:50.548Z,48.2
2022-10-14T00:47:51.145Z,47.1
2022-10-14T00:48:51.746Z,50.4
2022-10-14T00:49:52.341Z,47.5
2022-10-14T00:50:52.936Z,52.9
2022-10-14T00:51:53.534Z,53.0
2022-10-14T00:52:54.129Z,56.1
2022-10-14T00:53:54.726Z,56.8
2022-10-14T00:54:55.321Z,54.6
2022-10-14T00:55:55.919Z,58.7
2022-10-14T00:56:56.517Z,50.5
2022-10-14T00:57:57.115Z,59.5
2022-10-14T00:58:57.712Z,53.8
2022-10-14T00:59:58.309Z,56.8
2022-10-14T01:00:59.007Z,60.3
2022-10-14T01:01:59.601Z,62.4
2022-10-14T01:03:00.218Z,62.9
2022-10-14T01:04:00.818Z,65.5
2022-10-14T01:05:01.413Z,67.1
2022-10-14T01:06:02.012Z,63.6
2022-10-14T01:07:02.607Z,66.3
2022-10-14T01:08:03.205Z,66.0
2022-10-14T01:09:03.799Z,65.9
2022-10-14T01:10:04.400Z,67.0
2022-10-14T01:11:04.993Z,73.2
2022-10-14T01:12:27.630Z,70.6
2022-10-14T01:13:07.181Z,71.7
2022-10-14T01:14:07.778Z,79.8
2022-10-14T01:15:08.371Z,71.8
2022-10-14T01:16:08.969Z,83.3
2022-10-14T01:17:09.564Z,74.0
2022-10-14T01:18:10.161Z,74.1
2022-10-14T01:19:10.757Z,72.5
2022-10-14T01:20:11.354Z,72.2
2022-10-14T01:21:11.950Z,75.6
2022-10-14T01:22:12.547Z,74.2
2022-10-14T01:23:13.158Z,69.9
2022-10-14T01:24:13.744Z,76.5
2022-10-14T01:25:14.339Z,67.8
2022-10-14T01:26:14.937Z,72.6
2022-10-14T01:27:15.531Z,68.4
2022-10-14T01:28:16.146Z,67.6
2022-10-14T01:29:16.724Z,74.3
2022-10-14T01:30:17.320Z,69.3
2022-10-14T01:31:17.918Z,66.0
2022-10-14T01:32:18.753Z,63.3
2022-10-14T01:33:19.510Z,68.5
2022-10-14T01:34:20.110Z,66.9
2022-10-14T01:35:20.705Z,72.7
2022-10-14T01:36:21.327Z,68.0
2022-10-14T01:37:21.920Z,69.2
2022-10-14T01:38:22.518Z,64.4
2022-10-14T01:39:23.116Z,66.9
2022-10-14T01:40:23.713Z,71.5
2022-10-14T01:41:24.311Z,70.8
2022-10-14T01:42:24.959Z,74.1
2022-10-14T01:43:25.508Z,69.7
2022-10-14T01:44:26.124Z,72.4
2022-10-14T01:45:26.722Z,74.0
2022-10-14T01:46:27.321Z,71.7
2022-10-14T01:47:27.937Z,73.6
2022-10-14T01:48:28.584Z,77.2
2022-10-14T01:49:29.182Z,65.1
2022-10-14T01:50:29.779Z,70.9
2022-10-14T01:51:30.375Z,74.0
2022-10-14T01:52:30.971Z,71.6
2022-10-14T01:53:31.569Z,72.6
2022-10-14T01:54:32.165Z,71.8
2022-10-14T01:55:32.762Z,81.6
2022-10-14T01:56:36.955Z,76.3
2022-10-14T01:57:34.951Z,87.5
2022-10-14T01:58:35.548Z,82.7
2022-10-14T01:59:36.144Z,84.3
2022-10-14T02:00:36.741Z,83.6
2022-10-14T02:01:37.362Z,80.7
2022-10-14T02:02:37.935Z,80.9
2022-10-14T02:03:38.528Z,87.8
2022-10-14T02:04:39.145Z,77.2
2022-10-14T02:05:39.742Z,83.2
2022-10-14T02:06:40.339Z,89.4
2022-10-14T02:07:40.933Z,84.0
2022-10-14T02:08:41.532Z,78.5
2022-10-14T02:09:42.128Z,83.5
2022-10-14T02:10:42.725Z,80.3
2022-10-14T02:11:43.319Z,79.6
2022-10-14T02:12:43.915Z,80.4
2022-10-14T02:13:44.510Z,82.9
2022-10-14T02:14:45.107Z,82.1
2022-10-14T02:15:45.705Z,76.6
2022-10-14T02:16:46.299Z,81.5
2022-10-14T02:17:46.898Z,84.7
2022-10-14T02:18:47.494Z,85.5
2022-10-14T02:19:48.091Z,85.3
2022-10-14T02:20:48.688Z,89.6
2022-10-14T02:21:49.283Z,86.2
2022-10-14T02:22:49.887Z,87.9
2022-10-14T02:23:50.477Z,85.4
2022-10-14T02:24:51.077Z,80.9
2022-10-14T02:25:51.671Z,82.8
2022-10-14T02:26:52.269Z,86.0
2022-10-14T02:27:52.866Z,86.7
2022-10-14T02:28:53.521Z,83.5
2022-10-14T02:29:54.083Z,88.3
2022-10-14T02:30:54.681Z,85.8
2022-10-14T02:31:55.277Z,87.9
2022-10-14T02:32:55.874Z,80.4
2022-10-14T02:33:56.468Z,87.5
2022-10-14T02:34:57.064Z,79.8
2022-10-14T02:35:57.658Z,87.9
2022-10-14T02:36:58.258Z,82.1
2022-10-14T02:37:58.873Z,81.8
2022-10-14T02:38:59.470Z,85.1
2022-10-14T02:40:00.072Z,84.4
2022-10-14T02:41:00.663Z,75.8
2022-10-14T02:42:01.259Z,78.4
2022-10-14T02:43:01.858Z,79.6
2022-10-14T02:44:02.453Z,73.5
2022-10-14T02:45:03.052Z,86.4
2022-10-14T02:46:03.651Z,81.1
2022-10-14T02:47:04.249Z,83.4
2022-10-14T02:48:04.845Z,76.8
2022-10-14T02:49:05.443Z,80.3
2022-10-14T02:50:06.060Z,79.9
2022-10-14T02:51:06.654Z,79.0
2022-10-14T02:52:07.247Z,76.4
2022-10-14T02:53:07.844Z,82.2
2022-10-14T02:54:08.438Z,74.6
2022-10-14T02:55:09.035Z,65.8
2022-10-14T02:56:09.631Z,74.8
2022-10-14T02:57:10.229Z,74.9
2022-10-14T02:58:10.823Z,73.2
2022-10-14T02:59:11.439Z,78.3
2022-10-14T03:00:12.113Z,70.0
2022-10-14T03:01:12.667Z,74.8
2022-10-14T03:02:13.376Z,75.2
2022-10-14T03:03:13.945Z,74.4
2022-10-14T03:04:14.539Z,72.9
2022-10-14T03:05:15.142Z,65.9
2022-10-14T03:06:15.755Z,66.7
2022-10-14T03:07:16.352Z,75.6
2022-10-14T03:08:16.951Z,70.5
2022-10-14T03:09:17.546Z,72.8
2022-10-14T03:10:18.144Z,71.6
2022-10-14T03:11:18.744Z,77.4
2022-10-14T03:12:19.614Z,70.5
2022-10-14T03:13:20.352Z,68.5
2022-10-14T03:14:20.948Z,72.9
2022-10-14T03:15:21.562Z,69.4
2022-10-14T03:16:22.163Z,68.7
2022-10-14T03:17:22.760Z,74.0
2022-10-14T03:18:23.376Z,60.8
2022-10-14T03:19:23.976Z,71.3
2022-10-14T03:20:24.570Z,65.9
2022-10-14T03:21:25.168Z,66.0
2022-10-14T03:22:25.767Z,65.6
2022-10-14T03:23:26.383Z,67.8
2022-10-14T03:24:27.000Z,68.8
2022-10-14T03:25:27.599Z,64.4
2022-10-14T03:26:28.196Z,72.8
2022-10-14T03:27:28.794Z,69.3
2022-10-14T03:28:29.467Z,65.6
2022-10-14T03:29:30.039Z,68.9
2022-10-14T03:30:30.635Z,67.9
2022-10-14T03:31:31.233Z,67.1
2022-10-14T03:32:31.829Z,65.2
2022-10-14T03:33:33.894Z,67.3
2022-10-14T03:34:34.022Z,68.7
2022-10-14T03:35:34.639Z,59.2
2022-10-14T03:36:35.230Z,66.9
2022-10-14T03:37:35.826Z,66.8
2022-10-14T03:38:36.422Z,70.3
2022-10-14T03:39:37.023Z,66.3
2022-10-14T03:40:37.616Z,68.2
2022-10-14T03:41:38.211Z,67.1
2022-10-14T03:42:38.809Z,68.3
2022-10-14T03:43:39.406Z,69.8
2022-10-14T03:44:40.001Z,64.7
2022-10-14T03:45:40.597Z,64.7
2022-10-14T03:46:41.196Z,72.3
2022-10-14T03:47:41.792Z,66.5
2022-10-14T03:48:42.390Z,64.7
2022-10-14T03:49:42.992Z,66.8
2022-10-14T03:50:43.585Z,70.1
2022-10-14T03:51:44.188Z,66.0
2022-10-14T03:52:46.841Z,71.4
2022-10-14T03:53:46.376Z,70.4
2022-10-14T03:54:46.973Z,75.4
2022-10-14T03:55:47.572Z,73.9
2022-10-14T03:56:48.168Z,77.0
2022-10-14T03:57:48.764Z,76.5
2022-10-14T03:58:49.360Z,78.2
2022-10-14T03:59:49.957Z,84.0
2022-10-14T04:00:50.550Z,85.9
2022-10-14T04:01:51.177Z,86.1
2022-10-14T04:02:51.761Z,82.7
2022-10-14T04:03:52.359Z,82.8
2022-10-14T04:04:55.956Z,82.9
2022-10-14T04:05:54.545Z,81.4
2022-10-14T04:06:55.140Z,86.5
2022-10-14T04:07:55.735Z,81.9
2022-10-14T04:08:56.329Z,84.1
2022-10-14T04:09:56.930Z,76.8
2022-10-14T04:10:57.522Z,84.9
2022-10-14T04:11:58.120Z,89.9
2022-10-14T04:12:58.716Z,96.3
2022-10-14T04:13:59.343Z,89.5
2022-10-14T04:14:59.929Z,93.6
2022-10-14T04:16:00.527Z,94.4
2022-10-14T04:17:01.124Z,96.9
2022-10-14T04:18:01.726Z,93.3
2022-10-14T04:19:02.319Z,96.4
2022-10-14T04:20:02.917Z,101.6
2022-10-14T04:21:03.515Z,95.2
2022-10-14T04:22:04.114Z,95.9
2022-10-14T04:23:04.716Z,99.3
2022-10-14T04:24:08.405Z,101.5
2022-10-14T04:25:06.897Z,99.3
2022-10-14T04:26:07.515Z,109.2
2022-10-14T04:27:08.112Z,104.5
2022-10-14T04:28:08.711Z,106.7
2022-10-14T04:29:09.330Z,114.8
2022-10-14T04:30:09.926Z,102.7
2022-10-14T04:31:10.538Z,105.7
2022-10-14T04:32:11.145Z,107.0
2022-10-14T04:33:11.742Z,102.0
2022-10-14T04:34:12.343Z,107.0
2022-10-14T04:35:12.939Z,110.3
2022-10-14T04:36:13.536Z,111.9
2022-10-14T04:37:14.132Z,98.8
2022-10-14T04:38:14.730Z,106.2
2022-10-14T04:39:15.329Z,105.8
2022-10-14T04:40:15.928Z,102.3
2022-10-14T04:41:16.526Z,103.8
2022-10-14T04:42:17.122Z,104.5
2022-10-14T04:43:17.720Z,112.0
2022-10-14T04:44:18.318Z,107.3
2022-10-14T04:45:18.916Z,106.0
2022-10-14T04:46:19.512Z,101.6
2022-10-14T04:47:20.109Z,99.1
2022-10-14T04:48:20.707Z,98.8
2022-10-14T04:49:21.303Z,97.2
2022-10-14T04:50:21.900Z,103.5
2022-10-14T04:51:22.499Z,99.6
2022-10-14T04:52:23.372Z,102.3
2022-10-14T04:53:24.273Z,104.6
2022-10-14T04:54:24.885Z,107.2
2022-10-14T04:55:25.485Z,105.3
2022-10-14T04:56:26.083Z,94.4
2022-10-14T04:57:26.704Z,100.5
2022-10-14T04:58:27.305Z,104.0
2022-10-14T04:59:27.926Z,102.0
2022-10-14T05:00:28.500Z,103.6
2022-10-14T05:01:33.639Z,107.5
2022-10-14T05:02:30.690Z,103.3
2022-10-14T05:03:31.287Z,102.3
2022-10-14T05:04:31.889Z,102.2
2022-10-14T05:05:32.485Z,103.3
2022-10-14T05:06:33.105Z,96.1
2022-10-14T05:07:33.743Z,96.3
2022-10-14T05:08:34.338Z,100.6
2022-10-14T05:09:34.941Z,102.1
2022-10-14T05:10:35.534Z,96.4
2022-10-14T05:11:36.134Z,103.4
2022-10-14T05:12:36.730Z,115.3
2022-10-14T05:13:37.356Z,103.0
2022-10-14T05:14:37.946Z,99.8
2022-10-14T05:15:38.545Z,98.4
2022-10-14T05:16:39.143Z,95.7
2022-10-14T05:17:39.740Z,96.5
2022-10-14T05:18:40.360Z,98.7
2022-10-14T05:19:40.956Z,101.7
2022-10-14T05:20:41.553Z,100.9
2022-10-14T05:21:42.153Z,100.0
2022-10-14T05:22:42.751Z,101.6
2022-10-14T05:23:43.349Z,99.7
2022-10-14T05:24:43.968Z,101.0
2022-10-14T05:25:44.566Z,103.2
2022-10-14T05:26:45.184Z,103.4
2022-10-14T05:27:45.784Z,99.1
2022-10-14T05:28:46.422Z,97.1
2022-10-14T05:29:46.979Z,94.6
2022-10-14T05:30:47.597Z,94.8
2022-10-14T05:31:48.194Z,88.5
2022-10-14T05:32:48.793Z,95.4
2022-10-14T05:33:49.391Z,101.3
2022-10-14T05:34:49.991Z,96.3
2022-10-14T05:35:59.365Z,97.6
2022-10-14T05:36:52.177Z,98.1
2022-10-14T05:37:52.778Z,100.4
2022-10-14T05:38:53.377Z,95.1
2022-10-14T05:39:53.978Z,91.9
2022-10-14T05:40:54.574Z,99.0
2022-10-14T05:41:55.177Z,96.0
2022-10-14T05:42:55.774Z,92.4
2022-10-14T05:43:56.374Z,98.7
2022-10-14T05:44:56.970Z,91.8
2022-10-14T05:45:57.569Z,85.6
2022-10-14T05:46:58.166Z,89.3
2022-10-14T05:47:58.765Z,96.4
2022-10-14T05:48:59.363Z,91.5
2022-10-14T05:49:59.961Z,89.8
2022-10-14T05:51:00.558Z,98.1
2022-10-14T05:52:01.159Z,87.1
2022-10-14T05:53:01.782Z,87.1
2022-10-14T05:54:02.380Z,92.9
2022-10-14T05:55:02.996Z,95.2
2022-10-14T05:56:03.597Z,89.4
2022-10-14T05:57:04.208Z,96.1
2022-10-14T05:58:04.798Z,95.4
2022-10-14T05:59:05.399Z,96.2
2022-10-14T06:00:06.004Z,93.9
2022-10-14T06:01:06.623Z,93.2
2022-10-14T06:02:07.221Z,103.7
2022-10-14T06:03:07.847Z,99.8
2022-10-14T06:04:08.452Z,98.3
2022-10-14T06:05:09.051Z,96.8
2022-10-14T06:06:09.653Z,103.5
2022-10-14T06:07:10.258Z,92.1
2022-10-14T06:08:10.871Z,98.1
2022-10-14T06:09:11.749Z,96.2
2022-10-14T06:10:12.305Z,90.4
2022-10-14T06:11:12.905Z,91.3
2022-10-14T06:12:13.506Z,99.5
2022-10-14T06:13:14.112Z,102.8
2022-10-14T06:14:14.706Z,98.7
2022-10-14T06:15:15.307Z,105.8
2022-10-14T06:16:15.907Z,101.6
2022-10-14T06:17:17.699Z,103.5
2022-10-14T06:18:18.103Z,102.2
2022-10-14T06:19:18.703Z,111.7
2022-10-14T06:20:19.309Z,109.0
2022-10-14T06:21:19.907Z,106.9
2022-10-14T06:22:20.751Z,103.4
2022-10-14T06:23:21.491Z,103.0
2022-10-14T06:24:22.090Z,107.1
2022-10-14T06:25:22.691Z,104.6
2022-10-14T06:26:23.292Z,109.9
2022-10-14T06:27:23.892Z,107.1
2022-10-14T06:28:24.519Z,94.2
2022-10-14T06:29:25.108Z,101.8
2022-10-14T06:30:25.715Z,106.6
2022-10-14T06:31:31.261Z,112.5
2022-10-14T06:32:27.910Z,105.2
2022-10-14T06:33:28.531Z,108.0
2022-10-14T06:34:29.134Z,115.3
2022-10-14T06:35:29.739Z,109.4
2022-10-14T06:36:30.338Z,106.2
2022-10-14T06:37:30.939Z,105.2
2022-10-14T06:38:31.551Z,108.8
2022-10-14T06:39:32.144Z,107.0
2022-10-14T06:40:32.750Z,114.7
2022-10-14T06:41:33.351Z,106.3
2022-10-14T06:42:33.952Z,108.8
2022-10-14T06:43:34.556Z,121.2
2022-10-14T06:44:35.159Z,123.8
2022-10-14T06:45:35.760Z,108.7
2022-10-14T06:46:36.370Z,113.0
2022-10-14T06:47:36.967Z,106.6
2022-10-14T06:48:37.569Z,121.5
2022-10-14T06:49:38.171Z,109.5
2022-10-14T06:50:38.777Z,119.5
2022-10-14T06:51:39.378Z,98.7
2022-10-14T06:52:39.982Z,104.0
2022-10-14T06:53:40.585Z,104.2
2022-10-14T06:54:45.930Z,106.3
2022-10-14T06:55:42.783Z,101.8
2022-10-14T06:56:43.387Z,99.8
2022-10-14T06:57:43.991Z,110.0
2022-10-14T06:58:44.594Z,100.0
2022-10-14T06:59:45.195Z,103.9
2022-10-14T07:00:48.314Z,114.8
2022-10-14T07:01:46.469Z,105.5
2022-10-14T07:02:47.048Z,110.3
2022-10-14T07:03:49.045Z,100.6
2022-10-14T07:04:49.245Z,105.2
2022-10-14T07:05:49.844Z,96.0
2022-10-14T07:06:50.449Z,102.1
2022-10-14T07:07:51.113Z,108.2
2022-10-14T07:08:51.715Z,99.7
2022-10-14T07:09:52.317Z,103.8
2022-10-14T07:10:52.921Z,101.2
2022-10-14T07:11:53.523Z,102.5
2022-10-14T07:12:54.131Z,103.4
2022-10-14T07:13:54.728Z,103.2
2022-10-14T07:14:55.331Z,102.5
2022-10-14T07:15:55.934Z,101.3
2022-10-14T07:16:56.557Z,103.9
2022-10-14T07:17:57.158Z,105.4
2022-10-14T07:18:57.761Z,98.9
2022-10-14T07:19:58.381Z,101.6
2022-10-14T07:20:58.987Z,109.0
2022-10-14T07:21:59.588Z,112.1
2022-10-14T07:23:00.192Z,106.1
2022-10-14T07:24:00.794Z,108.4
2022-10-14T07:25:01.400Z,95.7
2022-10-14T07:26:02.000Z,97.5
2022-10-14T07:28:04.080Z,99.7
2022-10-14T07:29:04.740Z,101.0
2022-10-14T07:30:05.337Z,97.3
2022-10-14T07:31:05.923Z,93.9
2022-10-14T07:32:06.527Z,94.9
2022-10-14T07:33:07.127Z,95.2
2022-10-14T07:34:07.730Z,94.2
2022-10-14T07:35:08.331Z,96.4
2022-10-14T07:36:08.983Z,96.4
2022-10-14T07:37:09.557Z,98.9
2022-10-14T07:38:10.159Z,99.4
2022-10-14T07:39:10.760Z,98.9
2022-10-14T07:40:11.362Z,106.3
2022-10-14T07:41:11.965Z,98.2
2022-10-14T07:42:12.605Z,96.8
2022-10-14T07:43:13.189Z,92.1
2022-10-14T07:44:13.790Z,91.7
2022-10-14T07:45:14.410Z,90.5
2022-10-14T07:46:15.013Z,96.7
2022-10-14T07:47:15.613Z,91.8
2022-10-14T07:48:19.694Z,86.8
2022-10-14T07:49:17.814Z,84.5
2022-10-14T07:50:18.415Z,85.2
2022-10-14T07:51:19.040Z,80.9
2022-10-14T07:52:19.662Z,82.9
2022-10-14T07:53:20.281Z,73.5
2022-10-14T07:54:20.902Z,85.3
2022-10-14T07:55:21.507Z,81.4
2022-10-14T07:56:22.112Z,80.2
2022-10-14T07:57:23.083Z,78.1
2022-10-14T07:58:23.859Z,81.8
2022-10-14T07:59:24.462Z,84.6
2022-10-14T08:00:25.064Z,82.9
2022-10-14T08:01:25.690Z,77.6
2022-10-14T08:02:26.273Z,78.8
2022-10-14T08:03:26.876Z,80.5
2022-10-14T08:04:27.478Z,74.7
2022-10-14T08:05:43.309Z,69.8
2022-10-14T08:06:29.678Z,73.2
2022-10-14T08:07:30.284Z,66.1
2022-10-14T08:08:30.885Z,69.7
2022-10-14T08:09:31.490Z,72.4
2022-10-14T08:10:32.092Z,72.0
2022-10-14T08:11:32.715Z,65.0
2022-10-14T08:12:33.338Z,64.2
2022-10-14T08:13:33.943Z,67.3
2022-10-14T08:14:34.827Z,60.7
2022-10-14T08:15:35.451Z,62.5
2022-10-14T08:16:36.062Z,61.1
2022-10-14T08:17:36.674Z,61.5
2022-10-14T08:18:37.275Z,51.7
2022-10-14T08:19:37.899Z,54.5
2022-10-14T08:20:38.505Z,50.9
2022-10-14T08:21:39.127Z,45.5
2022-10-14T08:22:39.728Z,41.7
2022-10-14T08:23:40.332Z,50.5
2022-10-14T08:24:40.937Z,52.8
2022-10-14T08:25:41.539Z,51.0
2022-10-14T08:26:42.163Z,52.0
2022-10-14T08:27:42.785Z,49.4
2022-10-14T08:28:43.436Z,47.6
2022-10-14T08:29:44.005Z,45.3
2022-10-14T08:30:44.609Z,44.3
2022-10-14T08:31:45.212Z,27.9
2022-10-14T08:32:45.834Z,26.6
2022-10-14T08:33:46.439Z,31.8
2022-10-14T08:34:47.043Z,35.2
2022-10-14T08:35:51.624Z,25.3
2022-10-14T08:36:49.241Z,28.6
2022-10-14T08:37:49.841Z,29.5
2022-10-14T08:38:50.442Z,29.0
2022-10-14T08:39:51.044Z,24.7
2022-10-14T08:40:54.919Z,27.1
2022-10-14T08:41:53.261Z,19.4
2022-10-14T08:42:53.863Z,15.7
2022-10-14T08:43:54.470Z,16.4
2022-10-14T08:44:55.065Z,15.0
2022-10-14T08:45:55.668Z,14.7
2022-10-14T08:46:56.269Z,15.0
2022-10-14T08:47:56.875Z,13.3
2022-10-14T08:48:57.473Z,18.6
2022-10-14T08:49:58.077Z,16.5
2022-10-14T08:50:58.677Z,15.8
2022-10-14T08:51:59.277Z,9.7
2022-10-14T08:52:59.879Z,10.2
2022-10-14T08:54:00.479Z,9.4
2022-10-14T08:55:01.079Z,10.3
2022-10-14T08:56:01.679Z,8.9
2022-10-14T08:57:02.347Z,9.0
2022-10-14T08:58:05.017Z,9.1
2022-10-14T08:59:04.516Z,9.1
2022-10-14T09:00:05.121Z,9.5
2022-10-14T09:01:09.809Z,8.5
2022-10-14T09:02:07.311Z,8.2
2022-10-14T09:03:08.003Z,7.6
2022-10-14T09:04:08.645Z,6.8
2022-10-14T09:05:09.241Z,6.9
2022-10-14T09:06:09.839Z,6.7
2022-10-14T09:07:10.440Z,7.0
2022-10-14T09:08:11.042Z,6.5
2022-10-14T09:09:11.642Z,6.3
2022-10-14T09:10:12.263Z,6.4
2022-10-14T09:11:12.864Z,5.6
2022-10-14T09:12:13.463Z,6.1
2022-10-14T09:13:14.063Z,6.5
2022-10-14T09:14:14.664Z,6.9
2022-10-14T09:15:15.263Z,5.6
2022-10-14T09:16:15.863Z,5.5
2022-10-14T09:17:16.466Z,6.2
2022-10-14T09:18:17.067Z,5.4
2022-10-14T09:19:17.691Z,5.8
2022-10-14T09:20:18.284Z,5.6
2022-10-14T09:21:27.833Z,6.1
2022-10-14T09:22:20.809Z,5.6
2022-10-14T09:23:21.501Z,5.7
2022-10-14T09:24:22.127Z,5.9
2022-10-14T09:25:22.703Z,6.4
2022-10-14T09:26:23.303Z,5.6
2022-10-14T09:27:24.380Z,5.9
2022-10-14T09:28:25.261Z,5.7
2022-10-14T09:29:25.830Z,6.0
2022-10-14T09:30:26.430Z,5.9
2022-10-14T09:31:27.122Z,5.6
2022-10-14T09:32:27.651Z,5.3
2022-10-14T09:33:28.250Z,6.0
2022-10-14T09:34:28.854Z,6.0
2022-10-14T09:35:29.453Z,5.8
2022-10-14T09:36:30.055Z,5.9
2022-10-14T09:37:30.653Z,5.5
2022-10-14T09:38:31.254Z,6.5
2022-10-14T09:39:31.874Z,5.2
2022-10-14T09:40:32.476Z,5.0
2022-10-14T09:41:33.078Z,5.5
2022-10-14T09:42:33.677Z,7.1
2022-10-14T09:43:34.313Z,4.6
2022-10-14T09:44:34.874Z,5.5
2022-10-14T09:45:35.473Z,4.4
2022-10-14T09:46:36.073Z,4.3
2022-10-14T09:47:36.674Z,4.7
2022-10-14T09:48:37.276Z,4.1
2022-10-14T09:49:37.896Z,4.4
2022-10-14T09:50:38.497Z,4.7
2022-10-14T09:51:39.100Z,4.8
2022-10-14T09:52:39.700Z,4.7
2022-10-14T09:53:40.301Z,5.0
2022-10-14T09:54:40.944Z,5.1
2022-10-14T09:55:41.514Z,4.6
2022-10-14T09:56:42.294Z,4.4
2022-10-14T09:57:42.727Z,5.2
2022-10-14T09:58:43.327Z,4.8
2022-10-14T09:59:43.930Z,4.4
2022-10-14T10:00:44.528Z,4.7
2022-10-14T10:01:45.128Z,5.2
2022-10-14T10:02:45.727Z,5.4
2022-10-14T10:03:46.450Z,4.9
2022-10-14T10:04:46.954Z,5.0
2022-10-14T10:05:47.566Z,4.4
2022-10-14T10:06:48.165Z,4.9
2022-10-14T10:07:48.767Z,4.1
2022-10-14T10:08:49.363Z,4.7
2022-10-14T10:09:49.967Z,7.5
2022-10-14T10:10:50.566Z,4.5
2022-10-14T10:11:51.165Z,4.5
2022-10-14T10:12:51.764Z,4.1
2022-10-14T10:13:52.365Z,3.9
2022-10-14T10:14:52.965Z,3.9
2022-10-14T10:15:53.567Z,3.9
2022-10-14T10:16:54.188Z,3.5
2022-10-14T10:17:54.788Z,4.7
2022-10-14T10:18:55.386Z,3.7
2022-10-14T10:19:55.987Z,3.1
2022-10-14T10:20:56.628Z,3.1
2022-10-14T10:21:57.230Z,3.4
2022-10-14T10:22:57.831Z,3.7
2022-10-14T10:23:58.454Z,3.8
2022-10-14T10:24:59.055Z,3.2
2022-10-14T10:25:59.655Z,8.2
2022-10-14T10:27:00.254Z,4.3
2022-10-14T10:28:00.858Z,4.5
2022-10-14T10:29:01.516Z,2.7
2022-10-14T10:30:02.095Z,3.1
2022-10-14T10:31:02.694Z,2.7
2022-10-14T10:32:03.299Z,2.6
2022-10-14T10:33:03.901Z,2.5
2022-10-14T10:34:04.503Z,1.9
2022-10-14T10:35:05.106Z,2.2
2022-10-14T10:36:05.737Z,1.7
2022-10-14T10:37:06.322Z,2.0
2022-10-14T10:38:06.998Z,2.1
2022-10-14T10:39:07.597Z,2.1
2022-10-14T10:40:08.201Z,2.6
2022-10-14T10:41:08.801Z,2.9
2022-10-14T10:42:09.401Z,2.6
2022-10-14T10:43:10.001Z,2.3
2022-10-14T10:44:10.602Z,2.4
2022-10-14T10:45:11.205Z,2.7
2022-10-14T10:46:11.808Z,3.1
2022-10-14T10:47:12.409Z,2.6
2022-10-14T10:48:13.033Z,2.8
2022-10-14T10:49:13.629Z,5.2
2022-10-14T10:50:14.235Z,2.5
2022-10-14T10:51:14.829Z,2.2
2022-10-14T10:52:17.468Z,2.4
2022-10-14T10:53:17.029Z,2.1
2022-10-14T10:54:17.651Z,2.6
2022-10-14T10:55:18.251Z,2.2
2022-10-14T10:56:18.851Z,2.9
2022-10-14T10:57:19.641Z,1.3
2022-10-14T10:58:20.326Z,2.6
2022-10-14T10:59:20.932Z,2.0
2022-10-14T11:00:21.562Z,2.6
2022-10-14T11:01:22.218Z,2.9
2022-10-14T11:02:23.047Z,2.8
2022-10-14T11:03:23.805Z,3.2
2022-10-14T11:04:24.404Z,3.1
2022-10-14T11:05:25.070Z,4.5
2022-10-14T11:06:25.638Z,3.4
2022-10-14T11:07:28.059Z,3.0
2022-10-14T11:08:27.868Z,4.1
2022-10-14T11:09:28.431Z,3.8
2022-10-14T11:10:29.054Z,3.9
2022-10-14T11:11:29.655Z,3.5
2022-10-14T11:12:30.257Z,3.1
2022-10-14T11:13:33.078Z,3.9
2022-10-14T11:14:32.473Z,3.1
2022-10-14T11:15:33.072Z,3.4
2022-10-14T11:16:33.673Z,3.7
2022-10-14T11:17:34.338Z,3.6
2022-10-14T11:18:35.181Z,3.9
2022-10-14T11:19:35.782Z,2.7
2022-10-14T11:20:36.384Z,2.7
2022-10-14T11:21:36.985Z,2.7
2022-10-14T11:22:37.589Z,4.5
2022-10-14T11:23:38.190Z,2.0
2022-10-14T11:24:38.791Z,2.2
2022-10-14T11:25:39.412Z,2.0
2022-10-14T11:26:40.017Z,2.0
2022-10-14T11:27:40.615Z,4.7
2022-10-14T11:28:41.261Z,2.1
2022-10-14T11:29:41.831Z,2.4
2022-10-14T11:30:42.451Z,1.8
2022-10-14T11:31:43.050Z,1.8
2022-10-14T11:32:43.652Z,2.8
2022-10-14T11:33:44.273Z,1.9
2022-10-14T11:34:44.875Z,1.8
2022-10-14T11:35:45.475Z,1.7
2022-10-14T11:36:46.079Z,1.6
2022-10-14T11:37:46.675Z,1.5
2022-10-14T11:38:47.276Z,2.6
2022-10-14T11:39:47.878Z,1.7
2022-10-14T11:40:48.478Z,2.3
2022-10-14T11:41:49.081Z,1.9
2022-10-14T11:42:49.702Z,2.1
2022-10-14T11:43:50.300Z,2.3
2022-10-14T11:44:50.901Z,2.1
2022-10-14T11:45:51.500Z,6.0
2022-10-14T11:46:52.103Z,3.5
2022-10-14T11:47:52.700Z,4.3
2022-10-14T11:48:53.300Z,1.5
2022-10-14T11:49:53.907Z,4.7
2022-10-14T11:50:54.502Z,2.4
2022-10-14T11:51:55.101Z,1.4
2022-10-14T11:52:55.701Z,1.9
2022-10-14T11:53:56.301Z,1.4
2022-10-14T11:54:56.901Z,1.4
2022-10-14T11:55:57.503Z,2.0
2022-10-14T11:56:58.102Z,2.3
2022-10-14T11:57:58.701Z,5.6
2022-10-14T11:58:59.303Z,4.4
2022-10-14T11:59:59.905Z,2.0
2022-10-14T12:01:00.526Z,1.7
2022-10-14T12:02:01.121Z,2.8
2022-10-14T12:03:01.823Z,1.5
2022-10-14T12:04:02.418Z,1.7
2022-10-14T12:05:03.014Z,3.2
2022-10-14T12:06:03.620Z,3.9
2022-10-14T12:07:04.233Z,2.7
2022-10-14T12:08:04.830Z,1.7
2022-10-14T12:09:05.431Z,2.4
2022-10-14T12:10:06.031Z,2.6
2022-10-14T12:11:06.633Z,3.8
2022-10-14T12:12:07.233Z,2.3
2022-10-14T12:13:07.835Z,1.8
2022-10-14T12:14:08.452Z,2.0
2022-10-14T12:15:09.053Z,2.3
2022-10-14T12:16:09.653Z,1.6
2022-10-14T12:17:13.532Z,2.6
2022-10-14T12:18:11.847Z,1.7
2022-10-14T12:19:12.445Z,1.6
2022-10-14T12:20:13.113Z,1.5
2022-10-14T12:21:13.785Z,1.5
2022-10-14T12:22:14.299Z,2.3
2022-10-14T12:23:14.902Z,1.8
2022-10-14T12:24:15.501Z,1.8
2022-10-14T12:25:16.102Z,3.5
2022-10-14T12:26:16.702Z,4.7
2022-10-14T12:27:17.303Z,2.3
2022-10-14T12:28:17.939Z,1.3
2022-10-14T12:29:18.524Z,1.5
2022-10-14T12:30:19.124Z,1.3
2022-10-14T12:31:19.745Z,2.0
2022-10-14T12:32:20.795Z,1.3
2022-10-14T12:33:23.011Z,2.2
2022-10-14T12:34:23.204Z,1.6
2022-10-14T12:35:23.805Z,1.6
2022-10-14T12:36:24.441Z,1.6
2022-10-14T12:37:28.846Z,1.4
2022-10-14T12:38:26.599Z,1.3
2022-10-14T12:39:27.201Z,2.9
2022-10-14T12:40:27.800Z,1.6
2022-10-14T12:41:28.402Z,1.4
2022-10-14T12:42:29.000Z,1.6
2022-10-14T12:43:29.603Z,1.4
2022-10-14T12:44:30.222Z,1.4
2022-10-14T12:45:30.881Z,1.3
2022-10-14T12:46:31.441Z,2.0
2022-10-14T12:47:32.042Z,1.3
2022-10-14T12:48:32.663Z,1.4
2022-10-14T12:49:33.283Z,1.6
2022-10-14T12:50:33.883Z,4.1
2022-10-14T12:51:34.485Z,2.0
2022-10-14T12:52:35.085Z,1.2
2022-10-14T12:53:35.685Z,2.1
2022-10-14T12:54:36.285Z,1.9
2022-10-14T12:55:36.891Z,1.4
2022-10-14T12:56:37.489Z,2.6
2022-10-14T12:57:41.491Z,0.8
2022-10-14T12:58:39.704Z,1.0
2022-10-14T12:59:40.305Z,1.1
2022-10-14T13:00:40.904Z,2.9
2022-10-14T13:01:41.606Z,2.9
2022-10-14T13:02:42.177Z,1.1
2022-10-14T13:03:43.172Z,1.5
2022-10-14T13:04:43.770Z,1.2
2022-10-14T13:05:44.371Z,0.9
2022-10-14T13:06:44.968Z,1.5
2022-10-14T13:07:46.401Z,1.2
2022-10-14T13:08:47.158Z,1.2
2022-10-14T13:09:47.758Z,1.0
2022-10-14T13:10:48.428Z,1.2
2022-10-14T13:11:49.022Z,2.2
2022-10-14T13:12:49.641Z,1.2
2022-10-14T13:13:50.241Z,1.2
2022-10-14T13:14:50.858Z,1.1
2022-10-14T13:15:51.454Z,2.9
2022-10-14T13:16:52.056Z,1.9
2022-10-14T13:17:52.653Z,1.3
2022-10-14T13:18:53.254Z,1.3
2022-10-14T13:19:53.874Z,3.7
2022-10-14T13:20:54.476Z,1.0
2022-10-14T13:21:55.073Z,0.8
2022-10-14T13:22:55.673Z,1.4
2022-10-14T13:23:56.273Z,1.0
2022-10-14T13:24:56.873Z,1.8
2022-10-14T13:25:57.653Z,1.5
2022-10-14T13:26:58.234Z,1.3
2022-10-14T13:27:58.833Z,0.8
2022-10-14T13:28:59.479Z,1.2
2022-10-14T13:30:00.084Z,1.0
2022-10-14T13:31:00.691Z,0.9
2022-10-14T13:32:01.299Z,1.3
2022-10-14T13:33:01.901Z,1.0